createdAt,value
2019-03-30T00:00:10.858Z,70.41
2019-03-30T00:02:39.080Z,70.66
2019-03-30T00:05:08.335Z,70.67
2019-03-30T00:07:37.787Z,70.47
2019-03-30T00:10:07.081Z,70.45
2019-03-30T00:12:36.610Z,70.19
2019-03-30T00:15:06.756Z,70.07
2019-03-30T00:17:36.276Z,70.44
2019-03-30T00:20:05.862Z,70.20
2019-03-30T00:22:35.105Z,70.44
2019-03-30T00:25:04.582Z,70.62
2019-03-30T00:27:34.415Z,70.49
2019-03-30T00:30:04.133Z,70.58
2019-03-30T00:32:33.605Z,70.51
2019-03-30T00:35:03.092Z,70.54
2019-03-30T00:37:32.816Z,70.45
2019-03-30T00:40:02.133Z,70.39
2019-03-30T00:42:31.334Z,70.70
2019-03-30T00:45:00.567Z,70.68
2019-03-30T00:47:29.770Z,70.64
2019-03-30T00:49:59.031Z,71.18
2019-03-30T00:52:28.994Z,70.91
2019-03-30T00:54:58.546Z,70.91
2019-03-30T00:57:27.765Z,70.80
2019-03-30T00:59:57.293Z,70.90
2019-03-30T01:02:26.526Z,71.43
2019-03-30T01:04:55.742Z,70.98
2019-03-30T01:07:25.247Z,71.09
2019-03-30T01:09:55.164Z,71.30
2019-03-30T01:12:25.116Z,71.30
2019-03-30T01:14:54.332Z,71.39
2019-03-30T01:17:23.610Z,71.18
2019-03-30T01:20:02.705Z,71.13
2019-03-30T01:22:23.801Z,71.42
2019-03-30T01:24:53.030Z,71.33
2019-03-30T01:27:22.512Z,71.33
2019-03-30T01:29:51.984Z,71.27
2019-03-30T01:32:21.210Z,71.26
2019-03-30T01:34:50.447Z,71.08
2019-03-30T01:37:19.664Z,71.13
2019-03-30T01:39:48.891Z,70.95
2019-03-30T01:42:18.363Z,71.40
2019-03-30T01:44:47.586Z,72.09
2019-03-30T01:47:16.805Z,71.38
2019-03-30T01:49:46.057Z,71.61
2019-03-30T01:52:15.285Z,71.79
2019-03-30T01:54:44.505Z,72.30
2019-03-30T01:57:14.010Z,73.31
2019-03-30T01:59:43.622Z,72.40
2019-03-30T02:02:12.852Z,72.68
2019-03-30T02:04:42.082Z,72.24
2019-03-30T02:07:11.384Z,73.45
2019-03-30T02:09:40.719Z,72.81
2019-03-30T02:12:10.482Z,73.46
2019-03-30T02:14:40.230Z,73.71
2019-03-30T02:17:09.773Z,73.81
2019-03-30T02:19:39.144Z,73.46
2019-03-30T02:22:08.713Z,73.60
2019-03-30T02:24:38.255Z,73.41
2019-03-30T02:27:07.861Z,73.66
2019-03-30T02:29:37.086Z,73.61
2019-03-30T02:32:07.087Z,73.85
2019-03-30T02:34:36.635Z,73.37
2019-03-30T02:37:05.852Z,73.53
2019-03-30T02:39:35.363Z,73.33
2019-03-30T02:42:04.593Z,73.57
2019-03-30T02:44:34.193Z,73.54
2019-03-30T02:47:03.498Z,73.66
2019-03-30T02:49:32.739Z,73.47
2019-03-30T02:52:01.969Z,73.29
2019-03-30T02:54:31.209Z,73.00
2019-03-30T02:57:00.436Z,73.65
2019-03-30T02:59:30.219Z,73.19
2019-03-30T03:01:59.451Z,73.57
2019-03-30T03:04:28.680Z,74.09
2019-03-30T03:06:58.256Z,74.04
2019-03-30T03:09:27.773Z,74.07
2019-03-30T03:11:57.084Z,74.02
2019-03-30T03:14:26.378Z,74.71
2019-03-30T03:16:55.869Z,74.58
2019-03-30T03:19:25.089Z,74.15
2019-03-30T03:21:54.314Z,74.37
2019-03-30T03:24:23.547Z,74.32
2019-03-30T03:26:53.418Z,74.19
2019-03-30T03:29:22.882Z,74.04
2019-03-30T03:31:52.655Z,73.86
2019-03-30T03:34:22.559Z,73.81
2019-03-30T03:36:51.776Z,73.79
2019-03-30T03:39:20.998Z,73.57
2019-03-30T03:41:50.232Z,73.73
2019-03-30T03:44:19.458Z,73.63
2019-03-30T03:46:48.681Z,73.64
2019-03-30T03:49:17.906Z,73.64
2019-03-30T03:51:47.201Z,73.42
2019-03-30T03:54:16.605Z,73.65
2019-03-30T03:56:47.722Z,73.82
2019-03-30T03:59:17.492Z,73.79
2019-03-30T04:01:48.894Z,73.91
2019-03-30T04:04:20.884Z,73.84
2019-03-30T04:06:49.808Z,73.58
2019-03-30T04:09:22.632Z,73.64
2019-03-30T04:11:53.525Z,73.72
2019-03-30T04:14:26.508Z,73.65
2019-03-30T04:16:56.213Z,73.63
2019-03-30T04:19:25.513Z,73.74
2019-03-30T04:21:54.777Z,73.95
2019-03-30T04:24:23.978Z,74.41
2019-03-30T04:26:53.260Z,74.45
2019-03-30T04:29:22.487Z,75.31
2019-03-30T04:31:52.005Z,75.66
2019-03-30T04:34:21.518Z,75.91
2019-03-30T04:36:50.742Z,76.73
2019-03-30T04:39:19.950Z,76.79
2019-03-30T04:41:49.818Z,77.01
2019-03-30T04:44:19.041Z,76.52
2019-03-30T04:46:49.157Z,76.64
2019-03-30T04:49:18.387Z,76.02
2019-03-30T04:51:57.321Z,76.34
2019-03-30T04:54:19.521Z,76.03
2019-03-30T04:56:48.766Z,75.59
2019-03-30T04:59:17.998Z,75.51
2019-03-30T05:01:47.499Z,75.79
2019-03-30T05:04:17.417Z,75.59
2019-03-30T05:06:46.714Z,75.44
2019-03-30T05:09:16.221Z,75.30
2019-03-30T05:11:45.822Z,75.33
2019-03-30T05:14:15.634Z,75.54
2019-03-30T05:16:44.872Z,75.89
2019-03-30T05:19:14.916Z,75.45
2019-03-30T05:21:44.142Z,75.25
2019-03-30T05:24:13.754Z,75.50
2019-03-30T05:26:43.268Z,74.99
2019-03-30T05:29:12.780Z,75.62
2019-03-30T05:31:42.012Z,75.33
2019-03-30T05:34:11.897Z,75.65
2019-03-30T05:36:41.117Z,75.16
2019-03-30T05:39:10.354Z,75.22
2019-03-30T05:41:39.577Z,75.25
2019-03-30T05:44:09.081Z,75.47
2019-03-30T05:46:38.412Z,75.23
2019-03-30T05:49:07.975Z,75.53
2019-03-30T05:51:37.210Z,75.57
2019-03-30T05:54:06.449Z,75.45
2019-03-30T05:56:35.687Z,75.30
2019-03-30T05:59:04.947Z,75.46
2019-03-30T06:01:34.196Z,75.20
2019-03-30T06:04:03.751Z,75.23
2019-03-30T06:06:33.299Z,74.98
2019-03-30T06:09:02.903Z,74.46
2019-03-30T06:11:32.135Z,74.27
2019-03-30T06:14:01.356Z,74.32
2019-03-30T06:16:30.866Z,74.89
2019-03-30T06:19:00.104Z,74.85
2019-03-30T06:21:30.221Z,74.66
2019-03-30T06:23:59.456Z,74.42
2019-03-30T06:26:28.717Z,74.12
2019-03-30T06:28:57.994Z,73.54
2019-03-30T06:31:27.831Z,73.48
2019-03-30T06:33:57.102Z,73.51
2019-03-30T06:36:26.313Z,73.88
2019-03-30T06:38:55.561Z,74.03
2019-03-30T06:41:24.772Z,73.94
2019-03-30T06:43:53.984Z,73.42
2019-03-30T06:46:23.543Z,73.58
2019-03-30T06:48:53.442Z,73.07
2019-03-30T06:51:23.325Z,72.83
2019-03-30T06:53:52.855Z,71.62
2019-03-30T06:56:22.461Z,72.61
2019-03-30T06:58:52.054Z,71.44
2019-03-30T07:01:22.329Z,70.73
2019-03-30T07:03:51.699Z,71.38
2019-03-30T07:06:22.534Z,70.33
2019-03-30T07:08:54.522Z,70.52
2019-03-30T07:11:23.037Z,70.46
2019-03-30T07:13:55.110Z,71.19
2019-03-30T07:16:25.698Z,70.25
2019-03-30T07:18:55.387Z,70.15
2019-03-30T07:21:24.886Z,69.39
2019-03-30T07:23:54.138Z,68.53
2019-03-30T07:26:23.735Z,69.15
2019-03-30T07:28:52.987Z,69.24
2019-03-30T07:31:22.907Z,69.03
2019-03-30T07:33:52.132Z,68.46
2019-03-30T07:36:21.708Z,67.42
2019-03-30T07:38:51.318Z,68.38
2019-03-30T07:41:21.133Z,67.17
2019-03-30T07:43:50.723Z,67.64
2019-03-30T07:46:22.902Z,64.85
2019-03-30T07:48:52.160Z,66.82
2019-03-30T07:51:23.338Z,64.93
2019-03-30T07:53:52.566Z,65.25
2019-03-30T07:56:22.459Z,64.25
2019-03-30T07:58:52.385Z,64.96
2019-03-30T08:01:21.606Z,65.97
2019-03-30T08:03:51.188Z,64.45
2019-03-30T08:06:20.421Z,64.62
2019-03-30T08:08:49.668Z,63.14
2019-03-30T08:11:18.976Z,62.81
2019-03-30T08:13:48.472Z,62.85
2019-03-30T08:16:17.688Z,62.73
2019-03-30T08:18:46.969Z,60.41
2019-03-30T08:21:16.244Z,60.92
2019-03-30T08:23:45.738Z,60.69
2019-03-30T08:26:15.211Z,60.51
2019-03-30T08:28:44.797Z,59.85
2019-03-30T08:31:14.036Z,61.05
2019-03-30T08:33:43.286Z,59.36
2019-03-30T08:36:12.511Z,58.70
2019-03-30T08:38:41.773Z,58.16
2019-03-30T08:41:10.994Z,58.18
2019-03-30T08:43:40.228Z,57.51
2019-03-30T08:46:10.547Z,56.81
2019-03-30T08:48:39.993Z,57.46
2019-03-30T08:51:09.214Z,57.36
2019-03-30T08:53:38.519Z,56.94
2019-03-30T08:56:07.749Z,56.71
2019-03-30T08:58:37.306Z,56.77
2019-03-30T09:01:06.814Z,57.77
2019-03-30T09:03:36.405Z,55.75
2019-03-30T09:06:05.708Z,55.97
2019-03-30T09:08:34.954Z,56.65
2019-03-30T09:11:04.248Z,54.20
2019-03-30T09:13:34.139Z,54.92
2019-03-30T09:16:03.753Z,55.35
2019-03-30T09:18:33.032Z,54.14
2019-03-30T09:21:04.281Z,54.73
2019-03-30T09:23:33.201Z,54.99
2019-03-30T09:26:02.433Z,55.97
2019-03-30T09:28:31.950Z,54.92
2019-03-30T09:31:01.248Z,54.22
2019-03-30T09:33:30.490Z,53.79
2019-03-30T09:36:00.087Z,53.85
2019-03-30T09:38:29.378Z,54.19
2019-03-30T09:40:58.896Z,53.00
2019-03-30T09:43:28.119Z,52.89
2019-03-30T09:45:57.684Z,52.16
2019-03-30T09:48:26.885Z,51.20
2019-03-30T09:50:56.423Z,52.12
2019-03-30T09:53:25.629Z,52.46
2019-03-30T09:55:55.514Z,52.44
2019-03-30T09:58:24.731Z,50.30
2019-03-30T10:00:54.047Z,47.47
2019-03-30T10:03:23.258Z,51.04
2019-03-30T10:05:52.850Z,48.82
2019-03-30T10:08:22.066Z,49.39
2019-03-30T10:10:51.333Z,49.04
2019-03-30T10:13:20.925Z,47.75
2019-03-30T10:15:50.424Z,48.42
2019-03-30T10:18:19.933Z,48.61
2019-03-30T10:20:49.232Z,47.45
2019-03-30T10:23:18.549Z,49.50
2019-03-30T10:25:48.137Z,47.30
2019-03-30T10:28:17.897Z,44.09
2019-03-30T10:30:47.107Z,48.51
2019-03-30T10:33:16.362Z,45.05
2019-03-30T10:35:45.607Z,46.59
2019-03-30T10:38:14.829Z,46.56
2019-03-30T10:40:44.094Z,44.86
2019-03-30T10:43:13.323Z,44.38
2019-03-30T10:45:42.935Z,44.60
2019-03-30T10:48:12.677Z,42.95
2019-03-30T10:50:42.266Z,45.66
2019-03-30T10:53:12.756Z,44.43
2019-03-30T10:55:41.997Z,44.47
2019-03-30T10:58:11.228Z,44.32
2019-03-30T11:00:41.491Z,44.70
2019-03-30T11:03:11.017Z,42.40
2019-03-30T11:05:40.529Z,45.22
2019-03-30T11:08:10.237Z,44.10
2019-03-30T11:10:40.667Z,44.68
2019-03-30T11:13:09.911Z,43.11
2019-03-30T11:15:39.138Z,43.03
2019-03-30T11:18:08.456Z,44.26
2019-03-30T11:20:37.687Z,44.58
2019-03-30T11:23:07.260Z,42.55
2019-03-30T11:25:36.488Z,42.83
2019-03-30T11:28:05.782Z,44.46
2019-03-30T11:30:35.021Z,42.89
2019-03-30T11:33:04.795Z,42.12
2019-03-30T11:35:34.026Z,42.72
2019-03-30T11:38:03.474Z,45.34
2019-03-30T11:40:33.075Z,44.29
2019-03-30T11:43:02.615Z,43.41
2019-03-30T11:45:32.148Z,43.34
2019-03-30T11:48:01.666Z,43.69
2019-03-30T11:50:30.885Z,44.98
2019-03-30T11:53:00.359Z,44.43
2019-03-30T11:55:29.838Z,43.16
2019-03-30T11:57:59.469Z,45.18
2019-03-30T12:00:28.763Z,44.12
2019-03-30T12:02:57.999Z,44.98
2019-03-30T12:05:27.296Z,44.31
2019-03-30T12:07:57.046Z,45.19
2019-03-30T12:10:26.317Z,43.99
2019-03-30T12:12:55.767Z,42.43
2019-03-30T12:15:24.977Z,38.46
2019-03-30T12:17:54.194Z,36.46
2019-03-30T12:20:23.565Z,36.19
2019-03-30T12:22:53.029Z,39.01
2019-03-30T12:25:35.452Z,35.41
2019-03-30T12:27:56.649Z,34.95
2019-03-30T12:30:26.139Z,36.42
2019-03-30T12:32:55.359Z,34.72
2019-03-30T12:35:24.841Z,35.23
2019-03-30T12:37:54.084Z,38.53
2019-03-30T12:40:23.315Z,38.73
2019-03-30T12:42:53.388Z,37.10
2019-03-30T12:45:23.020Z,36.17
2019-03-30T12:47:52.531Z,37.09
2019-03-30T12:50:21.788Z,40.32
2019-03-30T12:52:51.030Z,37.52
2019-03-30T12:55:20.298Z,38.03
2019-03-30T12:57:49.780Z,36.21
2019-03-30T13:00:19.451Z,36.62
2019-03-30T13:02:48.684Z,38.37
2019-03-30T13:05:18.252Z,36.48
2019-03-30T13:07:47.486Z,37.80
2019-03-30T13:10:17.041Z,38.05
2019-03-30T13:12:46.346Z,37.01
2019-03-30T13:15:15.724Z,37.06
2019-03-30T13:17:45.192Z,36.05
2019-03-30T13:20:14.839Z,36.37
2019-03-30T13:22:44.144Z,36.07
2019-03-30T13:25:13.385Z,35.49
2019-03-30T13:27:42.688Z,37.06
2019-03-30T13:30:13.395Z,37.19
2019-03-30T13:32:42.841Z,37.68
2019-03-30T13:35:12.217Z,36.50
2019-03-30T13:37:41.421Z,37.78
2019-03-30T13:40:11.380Z,37.93
2019-03-30T13:42:40.584Z,38.04
2019-03-30T13:45:10.293Z,37.16
2019-03-30T13:47:39.790Z,37.37
2019-03-30T13:50:10.247Z,37.93
2019-03-30T13:52:39.766Z,37.45
2019-03-30T13:55:09.347Z,36.65
2019-03-30T13:57:38.811Z,38.13
2019-03-30T14:00:08.488Z,37.73
2019-03-30T14:02:37.791Z,38.37
2019-03-30T14:05:08.294Z,40.09
2019-03-30T14:07:37.553Z,38.66
2019-03-30T14:10:07.869Z,38.91
2019-03-30T14:12:39.273Z,37.08
2019-03-30T14:15:09.440Z,36.55
2019-03-30T14:17:38.877Z,36.83
2019-03-30T14:20:09.061Z,36.08
2019-03-30T14:22:40.838Z,35.71
2019-03-30T14:25:09.331Z,37.78
2019-03-30T14:27:38.516Z,36.00
2019-03-30T14:30:08.701Z,39.28
2019-03-30T14:32:37.928Z,38.20
2019-03-30T14:35:07.637Z,35.42
2019-03-30T14:37:36.846Z,36.15
2019-03-30T14:40:06.987Z,37.10
2019-03-30T14:42:36.477Z,37.04
2019-03-30T14:45:05.876Z,36.73
2019-03-30T14:47:35.984Z,36.89
2019-03-30T14:50:05.889Z,36.18
2019-03-30T14:52:35.185Z,36.26
2019-03-30T14:55:04.890Z,35.49
2019-03-30T14:57:34.120Z,35.54
2019-03-30T15:00:03.433Z,34.82
2019-03-30T15:02:32.669Z,35.83
2019-03-30T15:05:01.888Z,35.77
2019-03-30T15:07:31.781Z,34.73
2019-03-30T15:10:01.303Z,35.85
2019-03-30T15:12:31.428Z,36.23
2019-03-30T15:15:00.651Z,37.09
2019-03-30T15:17:29.938Z,35.59
2019-03-30T15:19:59.108Z,34.34
2019-03-30T15:22:28.685Z,34.66
2019-03-30T15:24:58.228Z,35.20
2019-03-30T15:27:27.481Z,34.90
2019-03-30T15:29:56.706Z,34.61
2019-03-30T15:32:26.210Z,35.62
2019-03-30T15:34:58.196Z,34.60
2019-03-30T15:37:26.430Z,35.51
2019-03-30T15:39:55.643Z,35.15
2019-03-30T15:42:24.884Z,35.34
2019-03-30T15:44:54.162Z,35.22
2019-03-30T15:47:23.450Z,35.14
2019-03-30T15:49:53.836Z,35.66
2019-03-30T15:52:23.078Z,34.62
2019-03-30T15:54:52.540Z,35.16
2019-03-30T15:57:25.173Z,34.94
2019-03-30T15:59:52.810Z,35.42
2019-03-30T16:02:22.068Z,35.71
2019-03-30T16:04:51.376Z,36.08
2019-03-30T16:07:20.575Z,36.83
2019-03-30T16:09:49.794Z,37.43
2019-03-30T16:12:19.353Z,35.50
2019-03-30T16:14:48.923Z,36.44
2019-03-30T16:17:18.221Z,36.35
2019-03-30T16:19:47.454Z,36.73
2019-03-30T16:22:17.391Z,37.63
2019-03-30T16:24:46.871Z,36.73
2019-03-30T16:27:28.303Z,36.44
2019-03-30T16:29:47.385Z,37.65
2019-03-30T16:32:17.010Z,36.94
2019-03-30T16:34:46.368Z,37.04
2019-03-30T16:37:15.888Z,37.62
2019-03-30T16:39:45.116Z,37.41
2019-03-30T16:42:14.821Z,37.66
2019-03-30T16:44:44.023Z,37.38
2019-03-30T16:47:13.271Z,36.57
2019-03-30T16:49:42.510Z,36.64
2019-03-30T16:52:11.738Z,36.82
2019-03-30T16:54:40.945Z,36.58
2019-03-30T16:57:10.476Z,36.04
2019-03-30T16:59:39.701Z,37.28
2019-03-30T17:02:08.923Z,37.14
2019-03-30T17:04:38.236Z,36.91
2019-03-30T17:07:07.457Z,35.81
2019-03-30T17:09:36.769Z,37.26
2019-03-30T17:12:05.993Z,37.75
2019-03-30T17:14:35.468Z,37.61
2019-03-30T17:17:04.934Z,38.89
2019-03-30T17:19:34.446Z,39.08
2019-03-30T17:22:03.675Z,40.02
2019-03-30T17:24:32.927Z,40.12
2019-03-30T17:27:02.464Z,40.50
2019-03-30T17:29:32.017Z,40.95
2019-03-30T17:32:01.298Z,41.83
2019-03-30T17:34:30.482Z,41.63
2019-03-30T17:36:59.813Z,41.72
2019-03-30T17:39:29.039Z,42.19
2019-03-30T17:41:58.263Z,42.59
2019-03-30T17:44:29.848Z,42.04
2019-03-30T17:46:59.085Z,41.99
2019-03-30T17:49:28.321Z,42.45
2019-03-30T17:51:57.842Z,43.18
2019-03-30T17:54:27.074Z,42.83
2019-03-30T17:56:56.316Z,42.79
2019-03-30T17:59:25.791Z,43.68
2019-03-30T18:01:55.036Z,44.90
2019-03-30T18:04:24.283Z,44.54
2019-03-30T18:06:53.565Z,45.58
2019-03-30T18:09:22.860Z,46.46
2019-03-30T18:11:52.336Z,46.18
2019-03-30T18:14:21.605Z,47.74
2019-03-30T18:16:51.199Z,48.00
2019-03-30T18:19:20.407Z,48.93
2019-03-30T18:21:49.618Z,47.73
2019-03-30T18:24:19.084Z,48.44
2019-03-30T18:26:50.874Z,49.41
2019-03-30T18:29:20.084Z,49.18
2019-03-30T18:31:49.939Z,47.90
2019-03-30T18:34:19.669Z,47.54
2019-03-30T18:36:51.387Z,47.72
2019-03-30T18:39:20.988Z,48.42
2019-03-30T18:41:50.970Z,48.82
2019-03-30T18:44:20.334Z,48.68
2019-03-30T18:46:49.795Z,49.10
2019-03-30T18:49:19.341Z,48.16
2019-03-30T18:51:49.716Z,49.06
2019-03-30T18:54:20.087Z,48.98
2019-03-30T18:56:49.404Z,48.17
2019-03-30T18:59:18.638Z,48.75
2019-03-30T19:01:48.354Z,48.14
2019-03-30T19:04:17.570Z,48.31
2019-03-30T19:06:46.792Z,48.45
2019-03-30T19:09:16.087Z,49.01
2019-03-30T19:11:47.535Z,49.56
2019-03-30T19:14:16.763Z,49.26
2019-03-30T19:16:45.980Z,49.09
2019-03-30T19:19:15.466Z,48.97
2019-03-30T19:21:44.939Z,47.97
2019-03-30T19:24:16.829Z,47.73
2019-03-30T19:26:45.285Z,48.15
2019-03-30T19:29:14.458Z,47.71
2019-03-30T19:31:44.067Z,48.01
2019-03-30T19:34:13.570Z,47.87
2019-03-30T19:36:43.112Z,48.03
2019-03-30T19:39:12.526Z,47.57
2019-03-30T19:41:41.746Z,47.58
2019-03-30T19:44:11.062Z,47.38
2019-03-30T19:46:40.279Z,47.56
2019-03-30T19:49:09.791Z,48.25
2019-03-30T19:51:39.297Z,48.04
2019-03-30T19:54:08.892Z,48.09
2019-03-30T19:56:40.513Z,48.13
2019-03-30T19:59:11.308Z,48.09
2019-03-30T20:01:40.862Z,48.04
2019-03-30T20:04:10.420Z,48.03
2019-03-30T20:06:39.863Z,48.19
2019-03-30T20:09:10.141Z,47.98
2019-03-30T20:11:39.380Z,48.20
2019-03-30T20:14:08.591Z,48.46
2019-03-30T20:16:37.882Z,48.78
2019-03-30T20:19:12.779Z,49.25
2019-03-30T20:21:38.633Z,49.16
2019-03-30T20:24:08.123Z,49.30
2019-03-30T20:26:37.400Z,49.58
2019-03-30T20:29:06.614Z,49.50
2019-03-30T20:31:35.843Z,49.55
2019-03-30T20:34:05.758Z,49.52
2019-03-30T20:36:35.458Z,49.77
2019-03-30T20:39:08.334Z,49.96
2019-03-30T20:41:37.754Z,50.08
2019-03-30T20:44:07.638Z,50.25
2019-03-30T20:46:37.190Z,50.36
2019-03-30T20:49:06.507Z,50.51
2019-03-30T20:51:36.241Z,50.40
2019-03-30T20:54:05.533Z,50.31
2019-03-30T20:56:34.851Z,50.06
2019-03-30T20:59:04.136Z,49.86
2019-03-30T21:01:33.657Z,49.82
2019-03-30T21:04:03.143Z,49.94
2019-03-30T21:06:32.610Z,49.44
2019-03-30T21:09:02.357Z,49.54
2019-03-30T21:11:31.588Z,49.63
2019-03-30T21:14:01.075Z,49.53
2019-03-30T21:16:30.584Z,49.04
2019-03-30T21:19:00.060Z,48.96
2019-03-30T21:21:29.817Z,49.19
2019-03-30T21:23:59.303Z,48.95
2019-03-30T21:26:28.863Z,48.82
2019-03-30T21:28:58.476Z,48.77
2019-03-30T21:31:27.730Z,48.44
2019-03-30T21:33:57.217Z,48.43
2019-03-30T21:36:26.539Z,48.55
2019-03-30T21:38:56.050Z,48.74
2019-03-30T21:41:25.630Z,48.92
2019-03-30T21:43:54.881Z,49.75
2019-03-30T21:46:24.476Z,51.49
2019-03-30T21:48:54.348Z,52.81
2019-03-30T21:51:23.854Z,53.50
2019-03-30T21:53:53.411Z,54.00
2019-03-30T21:56:22.670Z,54.76
2019-03-30T21:58:52.159Z,55.43
2019-03-30T22:01:21.395Z,56.24
2019-03-30T22:03:50.877Z,57.10
2019-03-30T22:06:20.454Z,57.59
2019-03-30T22:08:50.491Z,57.93
2019-03-30T22:11:19.737Z,58.03
2019-03-30T22:13:49.239Z,58.15
2019-03-30T22:16:19.105Z,58.73
2019-03-30T22:18:52.326Z,58.77
2019-03-30T22:21:21.786Z,58.75
2019-03-30T22:23:51.085Z,59.09
2019-03-30T22:26:20.302Z,59.48
2019-03-30T22:28:49.533Z,59.96
2019-03-30T22:31:18.785Z,60.23
2019-03-30T22:33:47.997Z,60.44
2019-03-30T22:36:17.748Z,60.91
2019-03-30T22:38:46.971Z,60.54
2019-03-30T22:41:16.205Z,60.59
2019-03-30T22:43:45.665Z,61.01
2019-03-30T22:46:14.874Z,61.51
2019-03-30T22:48:44.085Z,62.62
2019-03-30T22:51:13.553Z,61.94
2019-03-30T22:53:42.768Z,62.32
2019-03-30T22:56:12.095Z,62.54
2019-03-30T22:58:41.329Z,63.10
2019-03-30T23:01:15.669Z,63.19
2019-03-30T23:03:45.570Z,63.63
2019-03-30T23:06:14.934Z,64.07
2019-03-30T23:08:44.161Z,64.53
2019-03-30T23:11:13.627Z,64.93
2019-03-30T23:13:42.840Z,65.15
2019-03-30T23:16:12.073Z,66.35
2019-03-30T23:18:45.016Z,66.84
2019-03-30T23:21:12.225Z,66.20
2019-03-30T23:23:41.447Z,66.47
2019-03-30T23:26:10.654Z,66.00
2019-03-30T23:28:40.113Z,65.71
2019-03-30T23:31:09.372Z,65.51
2019-03-30T23:33:38.669Z,65.59
2019-03-30T23:36:08.141Z,65.49
2019-03-30T23:38:37.663Z,65.49
2019-03-30T23:41:06.850Z,65.86
2019-03-30T23:43:36.081Z,66.12
2019-03-30T23:46:05.285Z,66.73
2019-03-30T23:48:34.782Z,66.60
2019-03-30T23:51:04.316Z,66.47
2019-03-30T23:53:33.790Z,66.30
2019-03-30T23:56:03.006Z,67.62
2019-03-30T23:58:32.261Z,67.79
